sensor_id;sensor_type;location;lat;lon;timestamp;P1;durP1;ratioP1;P2;durP2;ratioP2
51438;SDS011;38816;51.142;-0.974;2023-06-22T00:00:50;397.58;;;370.30;;
51438;SDS011;38816;51.142;-0.974;2023-06-22T00:03:20;405.20;;;377.48;;
51438;SDS011;38816;51.142;-0.974;2023-06-22T00:05:46;404.92;;;376.80;;
51438;SDS011;38816;51.142;-0.974;2023-06-22T00:08:13;407.52;;;378.98;;
51438;SDS011;38816;51.142;-0.974;2023-06-22T00:10:38;404.08;;;375.55;;
51438;SDS011;38816;51.142;-0.974;2023-06-22T00:13:05;399.30;;;371.85;;
51438;SDS011;38816;51.142;-0.974;2023-06-22T00:15:31;405.77;;;377.13;;
51438;SDS011;38816;51.142;-0.974;2023-06-22T00:17:57;405.73;;;377.55;;
51438;SDS011;38816;51.142;-0.974;2023-06-22T00:20:23;404.63;;;376.52;;
51438;SDS011;38816;51.142;-0.974;2023-06-22T00:22:52;402.92;;;374.90;;
51438;SDS011;38816;51.142;-0.974;2023-06-22T00:25:21;399.38;;;371.83;;
51438;SDS011;38816;51.142;-0.974;2023-06-22T00:27:47;400.60;;;372.85;;
51438;SDS011;38816;51.142;-0.974;2023-06-22T00:30:13;401.77;;;373.58;;
51438;SDS011;38816;51.142;-0.974;2023-06-22T00:32:39;400.27;;;372.85;;
51438;SDS011;38816;51.142;-0.974;2023-06-22T00:35:04;399.98;;;372.42;;
51438;SDS011;38816;51.142;-0.974;2023-06-22T00:37:30;400.20;;;372.25;;
51438;SDS011;38816;51.142;-0.974;2023-06-22T00:39:55;388.30;;;360.77;;
51438;SDS011;38816;51.142;-0.974;2023-06-22T00:42:21;396.58;;;369.20;;
51438;SDS011;38816;51.142;-0.974;2023-06-22T00:44:47;393.00;;;365.75;;
51438;SDS011;38816;51.142;-0.974;2023-06-22T00:47:13;391.33;;;363.92;;
51438;SDS011;38816;51.142;-0.974;2023-06-22T00:49:40;397.33;;;369.70;;
51438;SDS011;38816;51.142;-0.974;2023-06-22T00:52:06;384.42;;;357.80;;
51438;SDS011;38816;51.142;-0.974;2023-06-22T00:54:38;388.52;;;361.80;;
51438;SDS011;38816;51.142;-0.974;2023-06-22T00:57:04;400.58;;;372.17;;
51438;SDS011;38816;51.142;-0.974;2023-06-22T00:59:29;393.83;;;366.60;;
51438;SDS011;38816;51.142;-0.974;2023-06-22T01:01:57;387.05;;;360.10;;
51438;SDS011;38816;51.142;-0.974;2023-06-22T01:04:24;384.25;;;357.90;;
51438;SDS011;38816;51.142;-0.974;2023-06-22T01:12:45;379.45;;;353.33;;
51438;SDS011;38816;51.142;-0.974;2023-06-22T01:15:27;382.38;;;356.10;;
51438;SDS011;38816;51.142;-0.974;2023-06-22T01:17:56;387.55;;;361.02;;
51438;SDS011;38816;51.142;-0.974;2023-06-22T01:20:24;385.00;;;357.67;;
51438;SDS011;38816;51.142;-0.974;2023-06-22T01:25:53;385.95;;;359.45;;
51438;SDS011;38816;51.142;-0.974;2023-06-22T01:31:12;382.65;;;356.13;;
51438;SDS011;38816;51.142;-0.974;2023-06-22T01:33:41;378.73;;;352.33;;
51438;SDS011;38816;51.142;-0.974;2023-06-22T01:36:08;373.95;;;347.90;;
51438;SDS011;38816;51.142;-0.974;2023-06-22T01:38:35;381.85;;;355.42;;
51438;SDS011;38816;51.142;-0.974;2023-06-22T01:41:02;384.52;;;358.27;;
51438;SDS011;38816;51.142;-0.974;2023-06-22T01:43:28;378.80;;;352.58;;
51438;SDS011;38816;51.142;-0.974;2023-06-22T01:45:55;374.80;;;349.05;;
51438;SDS011;38816;51.142;-0.974;2023-06-22T01:48:22;375.83;;;350.13;;
51438;SDS011;38816;51.142;-0.974;2023-06-22T01:50:48;371.90;;;346.35;;
51438;SDS011;38816;51.142;-0.974;2023-06-22T01:53:14;371.77;;;346.25;;
51438;SDS011;38816;51.142;-0.974;2023-06-22T01:55:39;374.30;;;348.05;;
51438;SDS011;38816;51.142;-0.974;2023-06-22T01:58:05;377.05;;;350.92;;
51438;SDS011;38816;51.142;-0.974;2023-06-22T02:00:35;369.25;;;343.33;;
51438;SDS011;38816;51.142;-0.974;2023-06-22T02:05:50;358.90;;;334.10;;
51438;SDS011;38816;51.142;-0.974;2023-06-22T02:08:20;362.80;;;337.60;;
51438;SDS011;38816;51.142;-0.974;2023-06-22T02:10:48;377.38;;;351.38;;
51438;SDS011;38816;51.142;-0.974;2023-06-22T02:13:15;377.17;;;350.90;;
51438;SDS011;38816;51.142;-0.974;2023-06-22T02:15:41;380.77;;;354.52;;
51438;SDS011;38816;51.142;-0.974;2023-06-22T02:18:07;373.35;;;347.80;;
51438;SDS011;38816;51.142;-0.974;2023-06-22T02:20:34;369.83;;;343.90;;
51438;SDS011;38816;51.142;-0.974;2023-06-22T02:23:02;369.20;;;343.85;;
51438;SDS011;38816;51.142;-0.974;2023-06-22T02:25:27;373.20;;;347.67;;
51438;SDS011;38816;51.142;-0.974;2023-06-22T02:27:52;359.08;;;334.33;;
51438;SDS011;38816;51.142;-0.974;2023-06-22T02:30:18;371.48;;;346.02;;
51438;SDS011;38816;51.142;-0.974;2023-06-22T02:32:43;371.67;;;346.15;;
51438;SDS011;38816;51.142;-0.974;2023-06-22T02:35:09;373.35;;;347.67;;
51438;SDS011;38816;51.142;-0.974;2023-06-22T02:37:37;372.83;;;347.20;;
51438;SDS011;38816;51.142;-0.974;2023-06-22T02:40:06;371.92;;;346.48;;
51438;SDS011;38816;51.142;-0.974;2023-06-22T02:42:33;368.00;;;343.10;;
51438;SDS011;38816;51.142;-0.974;2023-06-22T02:44:59;366.55;;;341.42;;
51438;SDS011;38816;51.142;-0.974;2023-06-22T02:47:25;368.17;;;342.38;;
51438;SDS011;38816;51.142;-0.974;2023-06-22T02:49:51;368.60;;;343.27;;
51438;SDS011;38816;51.142;-0.974;2023-06-22T02:52:16;367.80;;;342.08;;
51438;SDS011;38816;51.142;-0.974;2023-06-22T02:54:42;365.10;;;339.77;;
51438;SDS011;38816;51.142;-0.974;2023-06-22T02:57:07;366.35;;;341.42;;
51438;SDS011;38816;51.142;-0.974;2023-06-22T02:59:42;369.67;;;344.25;;
51438;SDS011;38816;51.142;-0.974;2023-06-22T03:02:07;374.33;;;348.05;;
51438;SDS011;38816;51.142;-0.974;2023-06-22T03:04:34;378.98;;;352.42;;
51438;SDS011;38816;51.142;-0.974;2023-06-22T03:07:00;373.48;;;347.77;;
51438;SDS011;38816;51.142;-0.974;2023-06-22T03:09:26;374.30;;;348.35;;
51438;SDS011;38816;51.142;-0.974;2023-06-22T03:11:53;378.45;;;351.90;;
51438;SDS011;38816;51.142;-0.974;2023-06-22T03:14:19;375.50;;;348.83;;
51438;SDS011;38816;51.142;-0.974;2023-06-22T03:16:44;380.00;;;352.95;;
51438;SDS011;38816;51.142;-0.974;2023-06-22T03:19:10;377.45;;;350.85;;
51438;SDS011;38816;51.142;-0.974;2023-06-22T03:21:37;386.05;;;359.33;;
51438;SDS011;38816;51.142;-0.974;2023-06-22T03:24:03;380.98;;;354.23;;
51438;SDS011;38816;51.142;-0.974;2023-06-22T03:26:29;384.30;;;356.85;;
51438;SDS011;38816;51.142;-0.974;2023-06-22T03:28:55;385.83;;;358.67;;
51438;SDS011;38816;51.142;-0.974;2023-06-22T03:31:20;391.38;;;363.98;;
51438;SDS011;38816;51.142;-0.974;2023-06-22T03:33:46;382.50;;;355.92;;
51438;SDS011;38816;51.142;-0.974;2023-06-22T03:36:13;386.02;;;358.90;;
51438;SDS011;38816;51.142;-0.974;2023-06-22T03:38:38;389.60;;;362.40;;
51438;SDS011;38816;51.142;-0.974;2023-06-22T03:41:04;394.48;;;367.08;;
51438;SDS011;38816;51.142;-0.974;2023-06-22T03:43:29;385.60;;;358.65;;
51438;SDS011;38816;51.142;-0.974;2023-06-22T03:45:54;398.42;;;371.05;;
51438;SDS011;38816;51.142;-0.974;2023-06-22T03:48:20;400.15;;;371.05;;
51438;SDS011;38816;51.142;-0.974;2023-06-22T03:50:45;396.50;;;367.50;;
51438;SDS011;38816;51.142;-0.974;2023-06-22T03:53:11;394.75;;;367.00;;
51438;SDS011;38816;51.142;-0.974;2023-06-22T03:55:36;403.55;;;374.90;;
51438;SDS011;38816;51.142;-0.974;2023-06-22T03:58:02;397.48;;;369.90;;
51438;SDS011;38816;51.142;-0.974;2023-06-22T04:02:55;396.95;;;368.17;;
51438;SDS011;38816;51.142;-0.974;2023-06-22T04:05:21;403.85;;;375.73;;
51438;SDS011;38816;51.142;-0.974;2023-06-22T04:07:46;393.55;;;364.40;;
51438;SDS011;38816;51.142;-0.974;2023-06-22T04:10:11;387.10;;;356.48;;
51438;SDS011;38816;51.142;-0.974;2023-06-22T04:12:37;393.77;;;365.52;;
51438;SDS011;38816;51.142;-0.974;2023-06-22T04:15:02;403.67;;;370.42;;
51438;SDS011;38816;51.142;-0.974;2023-06-22T04:17:28;393.05;;;365.50;;
51438;SDS011;38816;51.142;-0.974;2023-06-22T04:19:53;401.23;;;369.25;;
51438;SDS011;38816;51.142;-0.974;2023-06-22T04:22:19;396.50;;;367.80;;
51438;SDS011;38816;51.142;-0.974;2023-06-22T04:24:44;387.83;;;360.52;;
51438;SDS011;38816;51.142;-0.974;2023-06-22T04:27:10;400.77;;;372.90;;
51438;SDS011;38816;51.142;-0.974;2023-06-22T04:29:35;395.23;;;367.75;;
51438;SDS011;38816;51.142;-0.974;2023-06-22T04:32:01;390.30;;;362.90;;
51438;SDS011;38816;51.142;-0.974;2023-06-22T04:34:30;393.77;;;366.10;;
51438;SDS011;38816;51.142;-0.974;2023-06-22T04:36:55;398.20;;;369.33;;
51438;SDS011;38816;51.142;-0.974;2023-06-22T04:39:21;391.15;;;362.58;;
51438;SDS011;38816;51.142;-0.974;2023-06-22T04:41:46;392.02;;;363.75;;
51438;SDS011;38816;51.142;-0.974;2023-06-22T04:44:16;385.20;;;358.60;;
51438;SDS011;38816;51.142;-0.974;2023-06-22T04:46:49;387.17;;;359.48;;
51438;SDS011;38816;51.142;-0.974;2023-06-22T04:49:25;380.67;;;353.90;;
51438;SDS011;38816;51.142;-0.974;2023-06-22T04:52:00;386.30;;;358.45;;
51438;SDS011;38816;51.142;-0.974;2023-06-22T04:54:27;384.83;;;357.90;;
51438;SDS011;38816;51.142;-0.974;2023-06-22T04:56:53;384.40;;;356.88;;
51438;SDS011;38816;51.142;-0.974;2023-06-22T04:59:25;372.67;;;346.17;;
51438;SDS011;38816;51.142;-0.974;2023-06-22T05:01:59;367.70;;;342.02;;
51438;SDS011;38816;51.142;-0.974;2023-06-22T05:04:26;378.30;;;351.63;;
51438;SDS011;38816;51.142;-0.974;2023-06-22T05:06:53;375.92;;;348.10;;
51438;SDS011;38816;51.142;-0.974;2023-06-22T05:09:19;387.48;;;359.13;;
51438;SDS011;38816;51.142;-0.974;2023-06-22T05:11:45;374.25;;;348.27;;
51438;SDS011;38816;51.142;-0.974;2023-06-22T05:14:12;370.98;;;345.25;;
51438;SDS011;38816;51.142;-0.974;2023-06-22T05:16:37;383.95;;;357.27;;
51438;SDS011;38816;51.142;-0.974;2023-06-22T05:19:04;376.48;;;350.83;;
51438;SDS011;38816;51.142;-0.974;2023-06-22T05:21:29;383.65;;;357.38;;
51438;SDS011;38816;51.142;-0.974;2023-06-22T05:23:56;383.98;;;357.75;;
51438;SDS011;38816;51.142;-0.974;2023-06-22T05:26:27;379.80;;;353.83;;
51438;SDS011;38816;51.142;-0.974;2023-06-22T05:28:53;381.38;;;354.35;;
51438;SDS011;38816;51.142;-0.974;2023-06-22T05:31:19;370.15;;;343.40;;
51438;SDS011;38816;51.142;-0.974;2023-06-22T05:33:49;391.20;;;363.67;;
51438;SDS011;38816;51.142;-0.974;2023-06-22T05:36:16;389.85;;;363.25;;
51438;SDS011;38816;51.142;-0.974;2023-06-22T05:38:42;386.48;;;360.52;;
51438;SDS011;38816;51.142;-0.974;2023-06-22T05:41:07;390.70;;;363.95;;
51438;SDS011;38816;51.142;-0.974;2023-06-22T05:43:33;387.08;;;360.35;;
51438;SDS011;38816;51.142;-0.974;2023-06-22T05:46:00;390.85;;;362.88;;
51438;SDS011;38816;51.142;-0.974;2023-06-22T05:48:26;390.85;;;364.52;;
51438;SDS011;38816;51.142;-0.974;2023-06-22T05:50:52;394.23;;;366.92;;
51438;SDS011;38816;51.142;-0.974;2023-06-22T05:53:18;389.77;;;363.05;;
51438;SDS011;38816;51.142;-0.974;2023-06-22T05:55:44;376.10;;;349.67;;
51438;SDS011;38816;51.142;-0.974;2023-06-22T05:58:09;391.30;;;364.75;;
51438;SDS011;38816;51.142;-0.974;2023-06-22T06:00:35;393.42;;;366.83;;
51438;SDS011;38816;51.142;-0.974;2023-06-22T06:03:00;383.27;;;356.75;;
51438;SDS011;38816;51.142;-0.974;2023-06-22T06:05:31;393.65;;;364.85;;
51438;SDS011;38816;51.142;-0.974;2023-06-22T06:07:58;397.92;;;367.08;;
51438;SDS011;38816;51.142;-0.974;2023-06-22T06:10:28;396.63;;;369.75;;
51438;SDS011;38816;51.142;-0.974;2023-06-22T06:12:57;391.90;;;365.35;;
51438;SDS011;38816;51.142;-0.974;2023-06-22T06:15:22;406.70;;;379.38;;
51438;SDS011;38816;51.142;-0.974;2023-06-22T06:17:48;400.50;;;373.55;;
51438;SDS011;38816;51.142;-0.974;2023-06-22T06:20:19;401.48;;;374.25;;
51438;SDS011;38816;51.142;-0.974;2023-06-22T06:22:47;410.02;;;382.50;;
51438;SDS011;38816;51.142;-0.974;2023-06-22T06:25:13;400.23;;;373.20;;
51438;SDS011;38816;51.142;-0.974;2023-06-22T06:27:43;409.75;;;382.17;;
51438;SDS011;38816;51.142;-0.974;2023-06-22T06:30:10;403.08;;;376.00;;
51438;SDS011;38816;51.142;-0.974;2023-06-22T06:32:37;401.48;;;374.35;;
51438;SDS011;38816;51.142;-0.974;2023-06-22T06:35:03;399.85;;;372.90;;
51438;SDS011;38816;51.142;-0.974;2023-06-22T06:37:30;407.45;;;380.10;;
51438;SDS011;38816;51.142;-0.974;2023-06-22T06:39:56;402.35;;;375.25;;
51438;SDS011;38816;51.142;-0.974;2023-06-22T06:42:22;394.58;;;367.83;;
51438;SDS011;38816;51.142;-0.974;2023-06-22T06:44:49;404.02;;;376.85;;
51438;SDS011;38816;51.142;-0.974;2023-06-22T06:47:15;400.25;;;373.20;;
51438;SDS011;38816;51.142;-0.974;2023-06-22T06:49:40;397.08;;;370.08;;
51438;SDS011;38816;51.142;-0.974;2023-06-22T06:52:05;404.63;;;377.15;;
51438;SDS011;38816;51.142;-0.974;2023-06-22T06:54:31;409.15;;;381.55;;
51438;SDS011;38816;51.142;-0.974;2023-06-22T06:56:57;390.80;;;364.52;;
51438;SDS011;38816;51.142;-0.974;2023-06-22T06:59:22;394.42;;;368.15;;
51438;SDS011;38816;51.142;-0.974;2023-06-22T07:01:47;396.77;;;370.13;;
51438;SDS011;38816;51.142;-0.974;2023-06-22T07:04:14;399.25;;;372.67;;
51438;SDS011;38816;51.142;-0.974;2023-06-22T07:06:39;393.00;;;366.70;;
51438;SDS011;38816;51.142;-0.974;2023-06-22T07:09:04;403.80;;;376.75;;
51438;SDS011;38816;51.142;-0.974;2023-06-22T07:11:30;397.58;;;370.98;;
51438;SDS011;38816;51.142;-0.974;2023-06-22T07:13:55;397.77;;;370.90;;
51438;SDS011;38816;51.142;-0.974;2023-06-22T07:16:21;402.23;;;375.27;;
51438;SDS011;38816;51.142;-0.974;2023-06-22T07:18:46;404.60;;;377.65;;
51438;SDS011;38816;51.142;-0.974;2023-06-22T07:21:11;395.05;;;368.33;;
51438;SDS011;38816;51.142;-0.974;2023-06-22T07:23:37;398.17;;;371.38;;
51438;SDS011;38816;51.142;-0.974;2023-06-22T07:26:02;400.13;;;373.08;;
51438;SDS011;38816;51.142;-0.974;2023-06-22T07:28:28;383.05;;;357.02;;
51438;SDS011;38816;51.142;-0.974;2023-06-22T07:30:56;399.73;;;372.92;;
51438;SDS011;38816;51.142;-0.974;2023-06-22T07:33:22;388.98;;;362.48;;
51438;SDS011;38816;51.142;-0.974;2023-06-22T07:35:47;397.02;;;370.33;;
51438;SDS011;38816;51.142;-0.974;2023-06-22T07:38:13;394.95;;;368.35;;
51438;SDS011;38816;51.142;-0.974;2023-06-22T07:40:39;391.48;;;365.13;;
51438;SDS011;38816;51.142;-0.974;2023-06-22T07:43:06;399.25;;;372.35;;
51438;SDS011;38816;51.142;-0.974;2023-06-22T07:45:32;393.33;;;366.58;;
51438;SDS011;38816;51.142;-0.974;2023-06-22T07:47:59;401.80;;;374.52;;
51438;SDS011;38816;51.142;-0.974;2023-06-22T07:50:25;399.00;;;372.15;;
51438;SDS011;38816;51.142;-0.974;2023-06-22T07:52:51;402.83;;;375.45;;
51438;SDS011;38816;51.142;-0.974;2023-06-22T07:55:17;401.25;;;374.08;;
51438;SDS011;38816;51.142;-0.974;2023-06-22T07:57:43;404.10;;;376.77;;
51438;SDS011;38816;51.142;-0.974;2023-06-22T08:00:09;389.58;;;363.50;;
51438;SDS011;38816;51.142;-0.974;2023-06-22T08:05:08;392.67;;;366.25;;
51438;SDS011;38816;51.142;-0.974;2023-06-22T08:07:35;384.77;;;358.73;;
51438;SDS011;38816;51.142;-0.974;2023-06-22T08:10:02;384.95;;;358.83;;
51438;SDS011;38816;51.142;-0.974;2023-06-22T08:12:29;388.17;;;361.85;;
51438;SDS011;38816;51.142;-0.974;2023-06-22T08:14:54;397.30;;;370.20;;
51438;SDS011;38816;51.142;-0.974;2023-06-22T08:17:19;397.00;;;370.10;;
51438;SDS011;38816;51.142;-0.974;2023-06-22T08:19:45;396.08;;;369.30;;
51438;SDS011;38816;51.142;-0.974;2023-06-22T08:22:10;414.42;;;386.33;;
51438;SDS011;38816;51.142;-0.974;2023-06-22T08:24:36;417.40;;;388.67;;
51438;SDS011;38816;51.142;-0.974;2023-06-22T08:27:01;407.52;;;379.50;;
51438;SDS011;38816;51.142;-0.974;2023-06-22T08:29:26;422.27;;;393.08;;
51438;SDS011;38816;51.142;-0.974;2023-06-22T08:31:52;406.52;;;378.58;;
51438;SDS011;38816;51.142;-0.974;2023-06-22T08:34:17;411.50;;;382.95;;
51438;SDS011;38816;51.142;-0.974;2023-06-22T08:36:46;419.55;;;390.10;;
51438;SDS011;38816;51.142;-0.974;2023-06-22T08:39:17;409.83;;;381.35;;
51438;SDS011;38816;51.142;-0.974;2023-06-22T08:41:45;409.65;;;380.95;;
51438;SDS011;38816;51.142;-0.974;2023-06-22T08:44:11;405.25;;;376.58;;
51438;SDS011;38816;51.142;-0.974;2023-06-22T08:46:36;412.67;;;384.15;;
51438;SDS011;38816;51.142;-0.974;2023-06-22T08:49:03;395.50;;;367.80;;
51438;SDS011;38816;51.142;-0.974;2023-06-22T08:51:29;403.98;;;376.27;;
51438;SDS011;38816;51.142;-0.974;2023-06-22T08:53:55;400.17;;;372.50;;
51438;SDS011;38816;51.142;-0.974;2023-06-22T08:56:20;378.40;;;352.50;;
51438;SDS011;38816;51.142;-0.974;2023-06-22T08:58:45;371.45;;;346.15;;
51438;SDS011;38816;51.142;-0.974;2023-06-22T09:01:11;388.38;;;361.75;;
51438;SDS011;38816;51.142;-0.974;2023-06-22T09:03:36;389.10;;;362.90;;
51438;SDS011;38816;51.142;-0.974;2023-06-22T09:06:02;387.65;;;361.52;;
51438;SDS011;38816;51.142;-0.974;2023-06-22T09:08:28;396.35;;;369.25;;
51438;SDS011;38816;51.142;-0.974;2023-06-22T09:10:54;398.92;;;371.95;;
51438;SDS011;38816;51.142;-0.974;2023-06-22T09:13:19;376.63;;;350.80;;
51438;SDS011;38816;51.142;-0.974;2023-06-22T09:15:44;401.08;;;373.80;;
51438;SDS011;38816;51.142;-0.974;2023-06-22T09:18:10;379.10;;;353.52;;
51438;SDS011;38816;51.142;-0.974;2023-06-22T09:20:36;391.13;;;365.00;;
51438;SDS011;38816;51.142;-0.974;2023-06-22T09:23:02;398.63;;;371.35;;
51438;SDS011;38816;51.142;-0.974;2023-06-22T09:25:27;388.05;;;361.95;;
51438;SDS011;38816;51.142;-0.974;2023-06-22T09:27:52;394.52;;;367.77;;
51438;SDS011;38816;51.142;-0.974;2023-06-22T09:30:18;395.63;;;369.15;;
51438;SDS011;38816;51.142;-0.974;2023-06-22T09:32:44;397.20;;;370.77;;
51438;SDS011;38816;51.142;-0.974;2023-06-22T09:35:09;386.48;;;360.40;;
51438;SDS011;38816;51.142;-0.974;2023-06-22T09:37:35;389.38;;;363.30;;
51438;SDS011;38816;51.142;-0.974;2023-06-22T09:40:01;379.42;;;353.88;;
51438;SDS011;38816;51.142;-0.974;2023-06-22T09:42:33;373.07;;;348.20;;
51438;SDS011;38816;51.142;-0.974;2023-06-22T09:44:59;368.27;;;343.67;;
51438;SDS011;38816;51.142;-0.974;2023-06-22T09:47:26;378.13;;;352.92;;
51438;SDS011;38816;51.142;-0.974;2023-06-22T09:49:52;385.73;;;359.98;;
51438;SDS011;38816;51.142;-0.974;2023-06-22T09:52:17;374.90;;;349.77;;
51438;SDS011;38816;51.142;-0.974;2023-06-22T09:54:42;383.30;;;357.55;;
51438;SDS011;38816;51.142;-0.974;2023-06-22T09:57:08;383.65;;;358.25;;
51438;SDS011;38816;51.142;-0.974;2023-06-22T09:59:33;379.05;;;353.73;;
51438;SDS011;38816;51.142;-0.974;2023-06-22T10:01:59;372.45;;;347.42;;
51438;SDS011;38816;51.142;-0.974;2023-06-22T10:04:24;365.98;;;341.58;;
51438;SDS011;38816;51.142;-0.974;2023-06-22T10:06:50;378.30;;;353.15;;
51438;SDS011;38816;51.142;-0.974;2023-06-22T10:09:16;366.70;;;342.30;;
51438;SDS011;38816;51.142;-0.974;2023-06-22T10:11:41;353.40;;;329.95;;
51438;SDS011;38816;51.142;-0.974;2023-06-22T10:14:06;363.30;;;339.00;;
51438;SDS011;38816;51.142;-0.974;2023-06-22T10:16:32;361.75;;;337.63;;
51438;SDS011;38816;51.142;-0.974;2023-06-22T10:18:58;357.20;;;333.35;;
51438;SDS011;38816;51.142;-0.974;2023-06-22T10:21:23;354.00;;;330.15;;
51438;SDS011;38816;51.142;-0.974;2023-06-22T10:23:49;350.10;;;326.98;;
51438;SDS011;38816;51.142;-0.974;2023-06-22T10:26:14;353.33;;;330.02;;
51438;SDS011;38816;51.142;-0.974;2023-06-22T10:28:40;351.63;;;328.45;;
51438;SDS011;38816;51.142;-0.974;2023-06-22T10:31:05;342.02;;;319.40;;
51438;SDS011;38816;51.142;-0.974;2023-06-22T10:33:31;356.52;;;332.90;;
51438;SDS011;38816;51.142;-0.974;2023-06-22T10:35:56;359.35;;;335.52;;
51438;SDS011;38816;51.142;-0.974;2023-06-22T10:38:21;356.58;;;333.02;;
51438;SDS011;38816;51.142;-0.974;2023-06-22T10:40:47;356.73;;;333.20;;
51438;SDS011;38816;51.142;-0.974;2023-06-22T10:43:12;363.15;;;339.20;;
51438;SDS011;38816;51.142;-0.974;2023-06-22T10:45:37;352.30;;;328.85;;
51438;SDS011;38816;51.142;-0.974;2023-06-22T10:48:03;347.20;;;323.98;;
51438;SDS011;38816;51.142;-0.974;2023-06-22T10:50:28;356.23;;;332.65;;
51438;SDS011;38816;51.142;-0.974;2023-06-22T10:52:54;354.90;;;331.52;;
51438;SDS011;38816;51.142;-0.974;2023-06-22T10:55:19;362.83;;;338.98;;
51438;SDS011;38816;51.142;-0.974;2023-06-22T10:57:45;345.58;;;322.85;;
51438;SDS011;38816;51.142;-0.974;2023-06-22T11:00:12;351.67;;;328.38;;
51438;SDS011;38816;51.142;-0.974;2023-06-22T11:02:38;358.23;;;334.70;;
51438;SDS011;38816;51.142;-0.974;2023-06-22T11:05:04;351.02;;;327.90;;
51438;SDS011;38816;51.142;-0.974;2023-06-22T11:07:29;353.17;;;329.85;;
51438;SDS011;38816;51.142;-0.974;2023-06-22T11:09:55;348.75;;;325.65;;
51438;SDS011;38816;51.142;-0.974;2023-06-22T11:12:20;342.40;;;319.90;;
51438;SDS011;38816;51.142;-0.974;2023-06-22T11:14:46;348.55;;;325.63;;
51438;SDS011;38816;51.142;-0.974;2023-06-22T11:17:11;337.63;;;315.35;;
51438;SDS011;38816;51.142;-0.974;2023-06-22T11:19:36;341.23;;;318.60;;
51438;SDS011;38816;51.142;-0.974;2023-06-22T11:22:02;343.75;;;321.08;;
51438;SDS011;38816;51.142;-0.974;2023-06-22T11:24:27;346.00;;;323.17;;
51438;SDS011;38816;51.142;-0.974;2023-06-22T11:26:53;361.55;;;337.75;;
51438;SDS011;38816;51.142;-0.974;2023-06-22T11:29:18;342.10;;;319.38;;
51438;SDS011;38816;51.142;-0.974;2023-06-22T11:31:43;334.17;;;312.13;;
51438;SDS011;38816;51.142;-0.974;2023-06-22T11:34:09;338.00;;;315.67;;
51438;SDS011;38816;51.142;-0.974;2023-06-22T11:36:34;331.17;;;309.30;;
51438;SDS011;38816;51.142;-0.974;2023-06-22T11:39:00;343.95;;;321.25;;
51438;SDS011;38816;51.142;-0.974;2023-06-22T11:41:26;345.60;;;322.73;;
51438;SDS011;38816;51.142;-0.974;2023-06-22T11:43:51;341.73;;;319.05;;
51438;SDS011;38816;51.142;-0.974;2023-06-22T11:46:17;341.67;;;319.00;;
51438;SDS011;38816;51.142;-0.974;2023-06-22T11:48:42;347.58;;;324.73;;
51438;SDS011;38816;51.142;-0.974;2023-06-22T11:51:08;328.10;;;306.60;;
51438;SDS011;38816;51.142;-0.974;2023-06-22T11:53:33;337.70;;;315.17;;
51438;SDS011;38816;51.142;-0.974;2023-06-22T11:56:00;340.77;;;318.35;;
51438;SDS011;38816;51.142;-0.974;2023-06-22T11:58:26;348.80;;;325.73;;
51438;SDS011;38816;51.142;-0.974;2023-06-22T12:00:51;335.92;;;313.88;;
51438;SDS011;38816;51.142;-0.974;2023-06-22T12:03:17;353.40;;;330.15;;
51438;SDS011;38816;51.142;-0.974;2023-06-22T12:05:42;342.63;;;320.20;;
51438;SDS011;38816;51.142;-0.974;2023-06-22T12:08:08;333.02;;;311.00;;
51438;SDS011;38816;51.142;-0.974;2023-06-22T12:10:34;345.48;;;322.70;;
51438;SDS011;38816;51.142;-0.974;2023-06-22T12:12:59;349.33;;;326.27;;
51438;SDS011;38816;51.142;-0.974;2023-06-22T12:15:25;331.98;;;310.13;;
51438;SDS011;38816;51.142;-0.974;2023-06-22T12:17:51;338.13;;;315.77;;
51438;SDS011;38816;51.142;-0.974;2023-06-22T12:20:17;341.17;;;318.52;;
51438;SDS011;38816;51.142;-0.974;2023-06-22T12:22:42;325.45;;;304.17;;
51438;SDS011;38816;51.142;-0.974;2023-06-22T12:25:08;349.40;;;326.42;;
51438;SDS011;38816;51.142;-0.974;2023-06-22T12:27:34;353.20;;;329.95;;
51438;SDS011;38816;51.142;-0.974;2023-06-22T12:30:00;334.48;;;312.45;;
51438;SDS011;38816;51.142;-0.974;2023-06-22T12:32:26;346.17;;;323.27;;
51438;SDS011;38816;51.142;-0.974;2023-06-22T12:34:51;338.15;;;316.05;;
51438;SDS011;38816;51.142;-0.974;2023-06-22T12:37:17;331.27;;;309.65;;
51438;SDS011;38816;51.142;-0.974;2023-06-22T12:39:42;353.13;;;330.00;;
51438;SDS011;38816;51.142;-0.974;2023-06-22T12:42:08;341.42;;;318.73;;
51438;SDS011;38816;51.142;-0.974;2023-06-22T12:44:34;330.80;;;309.25;;
51438;SDS011;38816;51.142;-0.974;2023-06-22T12:47:00;334.40;;;312.48;;
51438;SDS011;38816;51.142;-0.974;2023-06-22T12:49:25;329.90;;;308.27;;
51438;SDS011;38816;51.142;-0.974;2023-06-22T12:51:51;336.20;;;314.23;;
51438;SDS011;38816;51.142;-0.974;2023-06-22T12:54:16;339.67;;;317.25;;
51438;SDS011;38816;51.142;-0.974;2023-06-22T12:56:42;343.20;;;320.27;;
51438;SDS011;38816;51.142;-0.974;2023-06-22T12:59:09;344.90;;;322.10;;
51438;SDS011;38816;51.142;-0.974;2023-06-22T13:01:35;330.15;;;308.27;;
51438;SDS011;38816;51.142;-0.974;2023-06-22T13:04:02;327.33;;;305.70;;
51438;SDS011;38816;51.142;-0.974;2023-06-22T13:06:27;326.63;;;305.27;;
51438;SDS011;38816;51.142;-0.974;2023-06-22T13:08:53;333.42;;;311.55;;
51438;SDS011;38816;51.142;-0.974;2023-06-22T13:11:18;329.30;;;307.63;;
51438;SDS011;38816;51.142;-0.974;2023-06-22T13:13:44;325.58;;;304.27;;
51438;SDS011;38816;51.142;-0.974;2023-06-22T13:16:10;335.42;;;313.50;;
51438;SDS011;38816;51.142;-0.974;2023-06-22T13:18:35;316.00;;;295.38;;
51438;SDS011;38816;51.142;-0.974;2023-06-22T13:21:01;332.17;;;310.40;;
51438;SDS011;38816;51.142;-0.974;2023-06-22T13:23:27;333.77;;;311.60;;
51438;SDS011;38816;51.142;-0.974;2023-06-22T13:25:52;336.15;;;314.08;;
51438;SDS011;38816;51.142;-0.974;2023-06-22T13:28:18;318.92;;;297.98;;
51438;SDS011;38816;51.142;-0.974;2023-06-22T13:30:43;335.40;;;313.40;;
51438;SDS011;38816;51.142;-0.974;2023-06-22T13:33:12;324.55;;;303.23;;
51438;SDS011;38816;51.142;-0.974;2023-06-22T13:35:38;334.08;;;312.15;;
51438;SDS011;38816;51.142;-0.974;2023-06-22T13:38:03;324.52;;;303.20;;
51438;SDS011;38816;51.142;-0.974;2023-06-22T13:40:29;338.67;;;316.23;;
51438;SDS011;38816;51.142;-0.974;2023-06-22T13:42:55;338.83;;;316.67;;
51438;SDS011;38816;51.142;-0.974;2023-06-22T13:45:20;317.25;;;296.55;;
51438;SDS011;38816;51.142;-0.974;2023-06-22T13:47:46;330.35;;;308.63;;
51438;SDS011;38816;51.142;-0.974;2023-06-22T13:50:12;328.13;;;306.73;;
51438;SDS011;38816;51.142;-0.974;2023-06-22T13:52:38;324.10;;;302.88;;
51438;SDS011;38816;51.142;-0.974;2023-06-22T13:55:04;333.45;;;311.60;;
51438;SDS011;38816;51.142;-0.974;2023-06-22T13:57:30;328.08;;;306.63;;